createdAt,value
2019-01-26T00:02:26.341Z,62.23
2019-01-26T00:04:53.347Z,67.05
2019-01-26T00:07:21.317Z,65.50
2019-01-26T00:09:48.058Z,51.58
2019-01-26T00:12:15.111Z,57.60
2019-01-26T00:14:42.169Z,57.62
2019-01-26T00:17:09.203Z,61.20
2019-01-26T00:19:36.254Z,74.37
2019-01-26T00:22:03.282Z,63.85
2019-01-26T00:24:30.180Z,70.12
2019-01-26T00:26:57.075Z,63.60
2019-01-26T00:29:24.119Z,61.23
2019-01-26T00:31:51.044Z,68.90
2019-01-26T00:34:18.015Z,74.22
2019-01-26T00:36:44.860Z,65.20
2019-01-26T00:39:12.121Z,70.78
2019-01-26T00:41:38.854Z,71.10
2019-01-26T00:44:05.817Z,58.55
2019-01-26T00:46:32.644Z,66.35
2019-01-26T00:48:59.298Z,74.30
2019-01-26T00:54:37.505Z,67.10
2019-01-26T00:57:04.637Z,71.15
2019-01-26T00:59:31.658Z,76.70
2019-01-26T01:01:58.445Z,68.78
2019-01-26T01:04:25.615Z,73.37
2019-01-26T01:06:52.716Z,64.77
2019-01-26T01:09:19.044Z,73.33
2019-01-26T01:11:45.806Z,68.70
2019-01-26T01:14:12.363Z,65.30
2019-01-26T01:16:38.874Z,69.72
2019-01-26T01:19:06.247Z,65.05
2019-01-26T01:21:32.734Z,62.10
2019-01-26T01:23:59.342Z,77.95
2019-01-26T01:26:26.163Z,70.97
2019-01-26T01:28:52.730Z,69.62
2019-01-26T01:31:19.658Z,63.65
2019-01-26T01:33:46.259Z,69.60
2019-01-26T01:36:13.051Z,72.55
2019-01-26T01:38:39.735Z,73.47
2019-01-26T01:41:06.417Z,65.70
2019-01-26T01:43:33.389Z,73.80
2019-01-26T01:46:00.101Z,70.80
2019-01-26T01:48:26.866Z,74.42
2019-01-26T01:50:53.733Z,70.55
2019-01-26T01:53:21.267Z,71.40
2019-01-26T01:55:48.162Z,73.02
2019-01-26T01:58:15.081Z,74.27
2019-01-26T02:00:42.162Z,67.65
2019-01-26T02:03:09.020Z,74.17
2019-01-26T02:05:36.212Z,73.42
2019-01-26T02:08:03.412Z,81.08
2019-01-26T02:10:30.670Z,74.75
2019-01-26T02:12:57.659Z,81.97
2019-01-26T02:15:24.452Z,83.78
2019-01-26T02:17:51.598Z,69.47
2019-01-26T02:20:20.188Z,79.03
2019-01-26T02:22:47.487Z,78.47
2019-01-26T02:25:15.777Z,75.60
2019-01-26T02:27:42.651Z,74.55
2019-01-26T02:30:13.054Z,78.52
2019-01-26T02:32:40.049Z,82.95
2019-01-26T02:35:07.393Z,76.07
2019-01-26T02:37:34.249Z,84.07
2019-01-26T02:40:01.032Z,76.40
2019-01-26T02:42:29.130Z,78.40
2019-01-26T02:44:56.049Z,74.22
2019-01-26T02:47:22.883Z,72.78
2019-01-26T02:49:49.526Z,77.27
2019-01-26T02:52:16.316Z,87.45
2019-01-26T02:54:43.074Z,75.80
2019-01-26T02:57:09.739Z,74.67
2019-01-26T02:59:36.622Z,81.25
2019-01-26T03:02:03.497Z,86.45
2019-01-26T03:04:30.123Z,79.30
2019-01-26T03:06:56.670Z,80.00
2019-01-26T03:09:23.374Z,78.78
2019-01-26T03:11:50.428Z,82.85
2019-01-26T03:14:17.604Z,80.20
2019-01-26T03:16:44.347Z,76.65
2019-01-26T03:19:11.148Z,79.82
2019-01-26T03:21:38.189Z,78.02
2019-01-26T03:24:05.955Z,95.85
2019-01-26T03:26:33.320Z,83.45
2019-01-26T03:29:00.307Z,87.92
2019-01-26T03:31:27.525Z,81.02
2019-01-26T03:33:54.702Z,85.75
2019-01-26T03:36:21.620Z,80.12
2019-01-26T03:38:48.689Z,86.72
2019-01-26T03:41:15.402Z,89.28
2019-01-26T03:43:42.484Z,81.55
2019-01-26T03:46:09.400Z,78.83
2019-01-26T03:48:36.249Z,90.20
2019-01-26T03:51:03.214Z,85.57
2019-01-26T03:53:30.280Z,84.07
2019-01-26T03:55:57.173Z,87.02
2019-01-26T03:58:24.225Z,84.50
2019-01-26T04:00:51.781Z,91.00
2019-01-26T04:03:19.135Z,76.07
2019-01-26T04:05:46.172Z,92.17
2019-01-26T04:08:13.106Z,87.95
2019-01-26T04:10:40.422Z,85.92
2019-01-26T04:13:07.321Z,93.80
2019-01-26T04:15:35.325Z,87.92
2019-01-26T04:18:02.336Z,83.47
2019-01-26T04:20:29.232Z,84.70
2019-01-26T04:22:56.383Z,83.45
2019-01-26T04:25:23.174Z,82.95
2019-01-26T04:27:50.347Z,91.97
2019-01-26T04:30:19.035Z,89.03
2019-01-26T04:32:46.315Z,90.83
2019-01-26T04:35:13.449Z,88.10
2019-01-26T04:37:40.067Z,91.32
2019-01-26T04:40:13.469Z,81.85
2019-01-26T04:42:40.433Z,82.15
2019-01-26T04:45:16.586Z,84.60
2019-01-26T04:47:43.516Z,79.25
2019-01-26T04:50:12.938Z,84.95
2019-01-26T04:52:39.702Z,83.60
2019-01-26T04:55:07.342Z,89.77
2019-01-26T04:57:34.283Z,80.50
2019-01-26T05:00:01.142Z,80.70
2019-01-26T05:02:28.083Z,90.10
2019-01-26T05:04:54.917Z,81.30
2019-01-26T05:07:21.982Z,91.20
2019-01-26T05:09:49.234Z,86.97
2019-01-26T05:12:16.180Z,94.28
2019-01-26T05:14:43.418Z,85.17
2019-01-26T05:17:10.164Z,104.60
2019-01-26T05:19:37.459Z,85.28
2019-01-26T05:22:04.552Z,91.30
2019-01-26T05:24:31.815Z,81.87
2019-01-26T05:26:58.590Z,93.10
2019-01-26T05:32:37.073Z,84.37
2019-01-26T05:35:04.929Z,85.05
2019-01-26T05:37:31.665Z,86.02
2019-01-26T05:39:58.663Z,96.30
2019-01-26T05:42:25.289Z,86.72
2019-01-26T05:44:52.257Z,91.35
2019-01-26T05:47:19.065Z,84.60
2019-01-26T05:49:45.643Z,88.00
2019-01-26T05:52:12.428Z,102.78
2019-01-26T05:54:39.258Z,82.35
2019-01-26T05:57:06.335Z,90.90
2019-01-26T05:59:33.669Z,84.85
2019-01-26T06:02:00.634Z,84.42
2019-01-26T06:04:27.377Z,95.05
2019-01-26T06:06:54.311Z,90.07
2019-01-26T06:09:20.795Z,87.20
2019-01-26T06:11:48.366Z,82.08
2019-01-26T06:14:15.182Z,82.72
2019-01-26T06:16:42.247Z,87.02
2019-01-26T06:19:28.549Z,84.70
2019-01-26T06:22:01.704Z,84.90
2019-01-26T06:24:29.311Z,83.33
2019-01-26T06:26:56.154Z,85.85
2019-01-26T06:29:23.051Z,89.72
2019-01-26T06:31:50.562Z,90.50
2019-01-26T06:34:17.287Z,96.37
2019-01-26T06:36:44.710Z,82.88
2019-01-26T06:39:11.509Z,81.92
2019-01-26T06:41:38.320Z,72.92
2019-01-26T06:44:05.398Z,78.65
2019-01-26T06:46:32.269Z,85.47
2019-01-26T06:48:59.811Z,89.80
2019-01-26T06:51:26.686Z,83.37
2019-01-26T06:53:53.695Z,83.03
2019-01-26T06:56:20.575Z,83.17
2019-01-26T06:58:47.169Z,83.78
2019-01-26T07:01:14.378Z,83.87
2019-01-26T07:03:41.584Z,82.90
2019-01-26T07:06:13.346Z,89.80
2019-01-26T07:08:40.138Z,93.15
2019-01-26T07:11:07.672Z,91.78
2019-01-26T07:13:34.898Z,85.90
2019-01-26T07:16:02.159Z,92.90
2019-01-26T07:18:29.209Z,91.75
2019-01-26T07:20:58.001Z,80.05
2019-01-26T07:23:24.732Z,86.30
2019-01-26T07:25:51.954Z,83.97
2019-01-26T07:28:18.985Z,85.25
2019-01-26T07:30:46.084Z,83.80
2019-01-26T07:33:12.978Z,80.47
2019-01-26T07:35:39.550Z,83.63
2019-01-26T07:38:13.301Z,80.17
2019-01-26T07:40:35.469Z,82.73
2019-01-26T07:43:02.533Z,84.13
2019-01-26T07:45:29.021Z,98.07
2019-01-26T07:47:55.863Z,82.55
2019-01-26T07:50:25.285Z,89.47
2019-01-26T07:52:52.245Z,86.40
2019-01-26T07:55:19.327Z,94.28
2019-01-26T07:57:45.799Z,88.20
2019-01-26T08:00:18.976Z,83.07
2019-01-26T08:02:46.150Z,85.32
2019-01-26T08:05:13.337Z,96.97
2019-01-26T08:07:40.055Z,80.90
2019-01-26T08:10:12.912Z,90.77
2019-01-26T08:12:40.561Z,95.43
2019-01-26T08:15:11.820Z,92.90
2019-01-26T08:17:38.955Z,92.02
2019-01-26T08:23:33.274Z,87.85
2019-01-26T08:26:00.582Z,83.60
2019-01-26T08:28:27.563Z,95.70
2019-01-26T08:30:57.106Z,95.40
2019-01-26T08:33:27.169Z,84.13
2019-01-26T08:36:00.116Z,82.23
2019-01-26T08:38:28.898Z,91.50
2019-01-26T08:40:55.701Z,90.70
2019-01-26T08:43:22.935Z,95.30
2019-01-26T08:45:49.788Z,96.30
2019-01-26T08:48:16.727Z,94.90
2019-01-26T08:50:44.722Z,100.00
2019-01-26T08:53:11.716Z,90.53
2019-01-26T08:55:38.607Z,97.17
2019-01-26T08:58:05.646Z,90.87
2019-01-26T09:00:33.296Z,94.17
2019-01-26T09:03:02.923Z,87.07
2019-01-26T09:05:50.565Z,99.83
2019-01-26T09:08:17.624Z,98.45
2019-01-26T09:10:44.658Z,89.60
2019-01-26T09:13:11.685Z,82.70
2019-01-26T09:15:38.970Z,88.17
2019-01-26T09:18:06.350Z,81.17
2019-01-26T09:20:33.458Z,81.60
2019-01-26T09:23:00.791Z,69.87
2019-01-26T09:25:27.719Z,75.27
2019-01-26T09:27:55.420Z,72.32
2019-01-26T09:30:23.438Z,75.40
2019-01-26T09:32:51.625Z,71.20
2019-01-26T09:35:20.242Z,73.53
2019-01-26T09:37:47.984Z,75.35
2019-01-26T09:40:20.389Z,78.53
2019-01-26T09:42:48.266Z,68.77
2019-01-26T09:45:17.543Z,74.07
2019-01-26T09:47:44.998Z,71.17
2019-01-26T09:50:12.817Z,60.60
2019-01-26T09:52:40.300Z,75.30
2019-01-26T09:55:09.786Z,70.93
2019-01-26T09:57:36.527Z,61.97
2019-01-26T10:00:07.407Z,75.63
2019-01-26T10:02:34.427Z,67.40
2019-01-26T10:05:01.154Z,74.70
2019-01-26T10:07:28.247Z,66.43
2019-01-26T10:09:54.626Z,71.37
2019-01-26T10:16:03.786Z,70.73
2019-01-26T10:18:30.363Z,70.83
2019-01-26T10:24:20.550Z,76.67
2019-01-26T10:29:58.601Z,83.40
2019-01-26T10:35:59.084Z,87.40
2019-01-26T10:38:25.317Z,73.00
2019-01-26T10:40:53.496Z,86.97
2019-01-26T10:43:22.325Z,90.80
2019-01-26T10:45:49.183Z,104.97
2019-01-26T10:48:15.972Z,85.83
2019-01-26T10:50:42.259Z,108.70
2019-01-26T10:53:09.239Z,95.83
2019-01-26T10:55:35.734Z,94.10
2019-01-26T10:58:02.050Z,89.20
2019-01-26T11:00:28.446Z,92.30
2019-01-26T11:02:55.165Z,119.70
2019-01-26T11:08:56.204Z,104.03
2019-01-26T11:11:22.658Z,112.50
2019-01-26T11:13:49.231Z,97.07
2019-01-26T11:16:15.615Z,87.63
2019-01-26T11:18:42.332Z,94.93
2019-01-26T11:21:09.002Z,100.80
2019-01-26T11:23:35.424Z,110.53
2019-01-26T11:26:01.827Z,95.70
2019-01-26T11:28:28.273Z,97.57
2019-01-26T11:30:54.543Z,100.77
2019-01-26T11:33:20.946Z,89.70
2019-01-26T11:35:47.270Z,96.20
2019-01-26T11:38:13.721Z,91.53
2019-01-26T11:40:40.133Z,94.93
2019-01-26T11:43:06.839Z,92.80
2019-01-26T11:45:35.424Z,92.80
2019-01-26T11:48:03.940Z,94.90
2019-01-26T11:50:38.115Z,83.97
2019-01-26T11:53:05.217Z,91.13
2019-01-26T11:55:39.567Z,96.40
2019-01-26T11:58:06.090Z,85.13
2019-01-26T12:00:40.271Z,75.83
2019-01-26T12:06:32.479Z,96.83
2019-01-26T12:08:59.284Z,82.67
2019-01-26T12:11:27.367Z,92.20
2019-01-26T12:13:53.963Z,92.03
2019-01-26T12:19:56.578Z,93.10
2019-01-26T12:22:23.633Z,101.33
2019-01-26T12:24:50.486Z,94.80
2019-01-26T12:30:41.544Z,85.90
2019-01-26T12:33:08.157Z,78.33
2019-01-26T12:35:34.918Z,82.33
2019-01-26T12:38:02.382Z,79.40
2019-01-26T12:40:29.426Z,80.30
2019-01-26T12:42:56.129Z,73.67
2019-01-26T12:45:22.807Z,73.33
2019-01-26T12:51:00.625Z,71.37
2019-01-26T12:53:27.487Z,68.67
2019-01-26T12:59:17.378Z,66.43
2019-01-26T13:01:43.968Z,77.30
2019-01-26T13:04:10.275Z,72.60
2019-01-26T13:06:37.019Z,69.73
2019-01-26T13:09:06.269Z,78.43
2019-01-26T13:11:33.096Z,69.33
2019-01-26T13:13:59.765Z,69.43
2019-01-26T13:16:26.259Z,67.50
2019-01-26T13:18:53.449Z,68.37
2019-01-26T13:21:20.044Z,71.07
2019-01-26T13:23:46.506Z,65.23
2019-01-26T13:26:13.136Z,55.90
2019-01-26T13:28:39.778Z,56.30
2019-01-26T13:31:07.116Z,57.63
2019-01-26T13:33:33.553Z,58.70
2019-01-26T13:36:00.307Z,57.07
2019-01-26T13:38:26.750Z,54.03
2019-01-26T13:40:53.598Z,53.43
2019-01-26T13:43:20.135Z,52.03
2019-01-26T13:45:47.229Z,53.33
2019-01-26T13:48:13.938Z,55.33
2019-01-26T13:50:40.631Z,54.40
2019-01-26T13:53:08.663Z,50.93
2019-01-26T13:55:35.260Z,51.47
2019-01-26T13:58:01.581Z,50.07
2019-01-26T14:00:35.411Z,49.50
2019-01-26T14:03:01.833Z,47.80
2019-01-26T14:05:28.472Z,46.20
2019-01-26T14:07:57.003Z,49.83
2019-01-26T14:10:25.411Z,55.63
2019-01-26T14:12:51.909Z,54.43
2019-01-26T14:15:20.201Z,48.57
2019-01-26T14:17:46.897Z,56.90
2019-01-26T14:20:21.593Z,44.30
2019-01-26T14:22:48.542Z,55.07
2019-01-26T14:25:16.332Z,51.17
2019-01-26T14:27:43.192Z,45.17
2019-01-26T14:30:37.419Z,51.23
2019-01-26T14:33:04.485Z,44.53
2019-01-26T14:35:31.235Z,41.60
2019-01-26T14:37:58.160Z,38.47
2019-01-26T14:40:24.825Z,39.10
2019-01-26T14:42:54.521Z,36.33
2019-01-26T14:45:20.464Z,35.43
2019-01-26T14:47:47.525Z,32.90
2019-01-26T14:50:16.263Z,41.03
2019-01-26T14:52:44.336Z,34.87
2019-01-26T14:55:24.887Z,30.60
2019-01-26T14:57:52.689Z,30.60
2019-01-26T15:00:23.297Z,27.17
2019-01-26T15:02:51.370Z,34.63
2019-01-26T15:05:18.329Z,30.13
2019-01-26T15:07:45.623Z,25.97
2019-01-26T15:10:13.659Z,27.60
2019-01-26T15:12:40.557Z,26.77
2019-01-26T15:15:14.259Z,31.27
2019-01-26T15:20:54.180Z,25.80
2019-01-26T15:23:21.254Z,25.83
2019-01-26T15:25:48.017Z,25.77
2019-01-26T15:28:14.709Z,30.57
2019-01-26T15:30:43.318Z,31.23
2019-01-26T15:33:11.171Z,31.60
2019-01-26T15:35:38.334Z,28.33
2019-01-26T15:38:06.139Z,34.10
2019-01-26T15:40:33.024Z,36.43
2019-01-26T15:42:59.656Z,33.37
2019-01-26T15:45:35.709Z,32.97
2019-01-26T15:48:02.204Z,30.83
2019-01-26T15:50:28.914Z,31.60
2019-01-26T15:52:55.384Z,32.03
2019-01-26T15:55:25.304Z,32.30
2019-01-26T15:57:52.335Z,26.07
2019-01-26T16:00:22.300Z,26.17
2019-01-26T16:02:49.240Z,29.97
2019-01-26T16:08:50.874Z,27.23
2019-01-26T16:14:29.459Z,33.10
2019-01-26T16:16:56.986Z,30.93
2019-01-26T16:22:35.462Z,35.37
2019-01-26T16:25:02.736Z,39.03
2019-01-26T16:27:29.648Z,38.80
2019-01-26T16:29:56.363Z,41.90
2019-01-26T16:32:23.298Z,40.23
2019-01-26T16:34:50.055Z,38.03
2019-01-26T16:37:16.838Z,39.17
2019-01-26T16:39:43.577Z,42.37
2019-01-26T16:42:10.647Z,54.03
2019-01-26T16:44:37.365Z,53.00
2019-01-26T16:47:03.988Z,47.77
2019-01-26T16:49:30.828Z,45.83
2019-01-26T16:55:21.309Z,45.50
2019-01-26T16:57:47.897Z,41.63
2019-01-26T17:00:34.701Z,41.23
2019-01-26T17:03:01.369Z,48.30
2019-01-26T17:05:28.104Z,52.80
2019-01-26T17:07:54.554Z,45.33
2019-01-26T17:10:21.300Z,51.60
2019-01-26T17:16:22.987Z,48.13
2019-01-26T17:18:49.689Z,58.57
2019-01-26T17:21:16.158Z,51.37
2019-01-26T17:27:06.537Z,48.43
2019-01-26T17:29:33.215Z,46.23
2019-01-26T17:32:00.507Z,49.17
2019-01-26T17:34:30.349Z,43.50
2019-01-26T17:36:55.979Z,48.10
2019-01-26T17:39:22.606Z,47.77
2019-01-26T17:41:49.325Z,49.50
2019-01-26T17:47:27.928Z,71.67
2019-01-26T17:49:54.577Z,45.37
2019-01-26T17:52:21.935Z,42.10
2019-01-26T17:54:48.808Z,47.97
2019-01-26T17:57:15.901Z,41.80
2019-01-26T17:59:44.751Z,52.53
2019-01-26T18:02:11.504Z,45.13
2019-01-26T18:04:38.241Z,41.73
2019-01-26T18:07:05.020Z,42.43
2019-01-26T18:09:39.322Z,47.80
2019-01-26T18:15:30.725Z,37.80
2019-01-26T18:17:57.370Z,43.73
2019-01-26T18:20:28.645Z,36.03
2019-01-26T18:22:55.828Z,35.53
2019-01-26T18:28:46.588Z,40.67
2019-01-26T18:31:13.960Z,38.50
2019-01-26T18:33:40.374Z,30.23
2019-01-26T18:36:07.532Z,39.30
2019-01-26T18:38:34.985Z,41.13
2019-01-26T18:41:02.304Z,34.20
2019-01-26T18:43:29.421Z,39.77
2019-01-26T18:45:56.284Z,36.00
2019-01-26T18:48:24.753Z,34.90
2019-01-26T18:50:56.420Z,33.57
2019-01-26T18:53:23.538Z,34.90
2019-01-26T18:59:14.268Z,41.47
2019-01-26T19:01:41.314Z,51.13
2019-01-26T19:13:40.892Z,46.90
2019-01-26T19:16:09.983Z,50.90
2019-01-26T19:21:49.143Z,46.83
2019-01-26T19:24:16.279Z,46.03
2019-01-26T19:26:43.211Z,49.00
2019-01-26T19:29:10.166Z,103.17
2019-01-26T19:31:37.552Z,43.20
2019-01-26T19:34:04.649Z,36.27
2019-01-26T19:36:33.703Z,32.70
2019-01-26T19:39:00.922Z,37.33
2019-01-26T19:41:27.675Z,35.00
2019-01-26T19:43:54.414Z,39.20
2019-01-26T19:46:29.117Z,36.40
2019-01-26T19:48:56.670Z,42.87
2019-01-26T19:51:23.325Z,39.83
2019-01-26T19:53:49.944Z,34.33
2019-01-26T19:56:16.499Z,37.03
2019-01-26T19:58:43.666Z,32.30
2019-01-26T20:01:10.924Z,36.40
2019-01-26T20:03:37.650Z,41.23
2019-01-26T20:06:04.338Z,42.93
2019-01-26T20:08:31.007Z,35.40
2019-01-26T20:10:57.480Z,34.87
2019-01-26T20:13:24.021Z,29.13
2019-01-26T20:15:51.667Z,27.40
2019-01-26T20:18:20.490Z,30.20
2019-01-26T20:20:47.571Z,36.67
2019-01-26T20:23:14.353Z,42.47
2019-01-26T20:25:53.675Z,35.00
2019-01-26T20:28:27.010Z,27.27
2019-01-26T20:30:53.492Z,24.97
2019-01-26T20:36:44.483Z,24.60
2019-01-26T20:39:11.537Z,22.77
2019-01-26T20:41:38.200Z,25.03
2019-01-26T20:44:04.716Z,22.97
2019-01-26T20:46:31.254Z,21.80
2019-01-26T20:48:57.917Z,20.37
2019-01-26T20:51:24.941Z,19.67
2019-01-26T20:57:15.540Z,22.33
2019-01-26T20:59:42.939Z,21.30
2019-01-26T21:02:10.257Z,21.60
2019-01-26T21:04:37.505Z,24.30
2019-01-26T21:07:04.760Z,22.13
2019-01-26T21:09:32.590Z,23.30
2019-01-26T21:11:59.169Z,24.33
2019-01-26T21:17:49.535Z,21.60
2019-01-26T21:20:18.154Z,15.03
2019-01-26T21:22:44.919Z,20.60
2019-01-26T21:25:12.738Z,17.93
2019-01-26T21:27:39.294Z,18.80
2019-01-26T21:30:12.579Z,15.90
2019-01-26T21:32:39.438Z,17.27
2019-01-26T21:38:28.908Z,15.53
2019-01-26T21:40:55.782Z,14.80
2019-01-26T21:43:22.769Z,14.33
2019-01-26T21:45:49.845Z,16.97
2019-01-26T21:48:16.761Z,14.77
2019-01-26T21:50:43.526Z,14.57
2019-01-26T21:53:10.043Z,16.00
2019-01-26T21:55:36.451Z,13.00
2019-01-26T21:58:03.483Z,14.57
2019-01-26T22:00:30.921Z,14.30
2019-01-26T22:02:57.787Z,16.97
2019-01-26T22:05:24.889Z,13.70
2019-01-26T22:07:51.920Z,13.03
2019-01-26T22:10:21.378Z,15.40
2019-01-26T22:12:48.381Z,13.20
2019-01-26T22:15:17.369Z,15.40
2019-01-26T22:17:44.744Z,19.60
2019-01-26T22:20:20.932Z,22.53
2019-01-26T22:23:09.986Z,27.40
2019-01-26T22:25:41.408Z,26.77
2019-01-26T22:31:31.450Z,23.47
2019-01-26T22:33:58.060Z,25.00
2019-01-26T22:36:24.592Z,26.73
2019-01-26T22:42:03.368Z,25.00
2019-01-26T22:47:54.491Z,28.47
2019-01-26T22:50:25.711Z,35.90
2019-01-26T22:52:53.139Z,29.97
2019-01-26T22:55:21.193Z,27.63
2019-01-26T22:57:49.440Z,23.77
2019-01-26T23:03:46.399Z,40.13
2019-01-26T23:06:38.444Z,33.13
2019-01-26T23:12:15.266Z,40.27
2019-01-26T23:15:05.851Z,39.30
2019-01-26T23:21:21.544Z,33.50
2019-01-26T23:24:10.947Z,31.63
2019-01-26T23:26:47.506Z,30.73
2019-01-26T23:29:27.434Z,28.73
2019-01-26T23:31:54.698Z,28.00
2019-01-26T23:34:21.655Z,33.93
2019-01-26T23:36:48.616Z,25.00
2019-01-26T23:39:15.624Z,24.90
2019-01-26T23:45:17.835Z,22.47
2019-01-26T23:47:44.168Z,23.80
2019-01-26T23:50:10.578Z,24.17
2019-01-26T23:52:37.138Z,24.57
2019-01-26T23:55:06.224Z,26.80
2019-01-26T23:57:32.648Z,26.97
2019-01-26T23:59:59.215Z,26.13
